createdAt,value
2019-03-10T00:00:42.275Z,2.27
2019-03-10T00:01:45.759Z,2.40
2019-03-10T00:02:49.221Z,2.50
2019-03-10T00:03:52.714Z,2.30
2019-03-10T00:04:56.160Z,2.17
2019-03-10T00:05:59.610Z,2.80
2019-03-10T00:07:03.093Z,1.97
2019-03-10T00:08:08.085Z,2.00
2019-03-10T00:09:11.785Z,2.40
2019-03-10T00:10:15.246Z,2.10
2019-03-10T00:11:18.715Z,2.63
2019-03-10T00:12:22.194Z,2.37
2019-03-10T00:13:25.736Z,2.20
2019-03-10T00:14:29.229Z,2.03
2019-03-10T00:15:32.694Z,2.10
2019-03-10T00:16:36.165Z,2.63
2019-03-10T00:17:39.637Z,2.63
2019-03-10T00:18:43.116Z,2.90
2019-03-10T00:19:46.575Z,2.03
2019-03-10T00:20:50.026Z,2.90
2019-03-10T00:21:53.503Z,2.43
2019-03-10T00:22:57.029Z,2.50
2019-03-10T00:24:00.555Z,2.40
2019-03-10T00:25:04.673Z,2.67
2019-03-10T00:26:08.180Z,2.87
2019-03-10T00:27:11.731Z,2.83
2019-03-10T00:28:15.304Z,2.23
2019-03-10T00:29:18.740Z,2.90
2019-03-10T00:30:22.355Z,2.70
2019-03-10T00:31:28.769Z,2.37
2019-03-10T00:32:32.281Z,2.40
2019-03-10T00:33:35.780Z,2.67
2019-03-10T00:34:39.229Z,2.60
2019-03-10T00:35:42.695Z,2.37
2019-03-10T00:36:46.164Z,2.07
2019-03-10T00:37:49.691Z,2.97
2019-03-10T00:38:58.708Z,2.63
2019-03-10T00:40:24.443Z,2.67
2019-03-10T00:41:36.598Z,2.00
2019-03-10T00:42:54.938Z,2.73
2019-03-10T00:44:19.198Z,2.97
2019-03-10T00:45:34.302Z,2.60
2019-03-10T00:47:07.740Z,2.87
2019-03-10T00:48:30.218Z,2.30
2019-03-10T00:50:05.207Z,3.00
2019-03-10T00:51:43.158Z,2.93
2019-03-10T00:52:48.953Z,2.87
2019-03-10T00:53:52.514Z,2.00
2019-03-10T00:54:55.955Z,1.93
2019-03-10T00:55:59.533Z,2.40
2019-03-10T00:57:03.257Z,2.43
2019-03-10T00:58:06.746Z,2.30
2019-03-10T00:59:10.290Z,2.23
2019-03-10T01:00:18.314Z,2.00
2019-03-10T01:01:21.756Z,3.00
2019-03-10T01:02:25.233Z,2.50
2019-03-10T01:03:28.755Z,1.93
2019-03-10T01:04:32.226Z,2.40
2019-03-10T01:05:35.780Z,2.60
2019-03-10T01:06:39.315Z,2.70
2019-03-10T01:07:42.980Z,3.17
2019-03-10T01:08:46.426Z,2.60
2019-03-10T01:09:50.016Z,2.50
2019-03-10T01:10:53.958Z,2.87
2019-03-10T01:11:57.416Z,2.40
2019-03-10T01:13:01.029Z,2.63
2019-03-10T01:14:04.621Z,3.23
2019-03-10T01:15:10.685Z,2.67
2019-03-10T01:16:14.443Z,2.60
2019-03-10T01:17:18.927Z,2.57
2019-03-10T01:18:24.214Z,2.70
2019-03-10T01:19:28.068Z,2.03
2019-03-10T01:20:31.807Z,2.00
2019-03-10T01:21:35.652Z,3.27
2019-03-10T01:22:39.398Z,2.30
2019-03-10T01:23:42.997Z,2.37
2019-03-10T01:24:46.551Z,2.77
2019-03-10T01:25:50.028Z,2.73
2019-03-10T01:26:53.621Z,2.40
2019-03-10T01:27:58.745Z,2.80
2019-03-10T01:29:02.208Z,2.70
2019-03-10T01:30:19.711Z,1.83
2019-03-10T01:31:26.246Z,2.00
2019-03-10T01:32:44.159Z,2.00
2019-03-10T01:34:10.083Z,2.00
2019-03-10T01:35:22.306Z,1.93
2019-03-10T01:36:24.615Z,2.20
2019-03-10T01:37:28.095Z,2.40
2019-03-10T01:38:31.557Z,2.93
2019-03-10T01:39:35.018Z,2.00
2019-03-10T01:40:38.483Z,2.30
2019-03-10T01:41:41.937Z,1.93
2019-03-10T01:42:45.421Z,2.40
2019-03-10T01:43:48.869Z,1.97
2019-03-10T01:44:52.334Z,2.47
2019-03-10T01:45:55.795Z,2.27
2019-03-10T01:46:59.250Z,2.10
2019-03-10T01:48:02.729Z,1.97
2019-03-10T01:49:06.179Z,2.20
2019-03-10T01:50:12.274Z,1.90
2019-03-10T01:51:17.766Z,1.90
2019-03-10T01:52:20.934Z,2.57
2019-03-10T01:53:25.773Z,2.00
2019-03-10T01:54:29.424Z,2.20
2019-03-10T01:55:32.892Z,1.57
2019-03-10T01:56:36.428Z,1.80
2019-03-10T01:57:40.090Z,2.13
2019-03-10T01:58:43.547Z,2.63
2019-03-10T01:59:47.011Z,1.97
2019-03-10T02:00:50.463Z,2.10
2019-03-10T02:01:53.920Z,2.10
2019-03-10T02:02:57.401Z,1.50
2019-03-10T02:04:00.851Z,2.20
2019-03-10T02:05:06.128Z,1.73
2019-03-10T02:06:09.585Z,2.20
2019-03-10T02:07:13.032Z,2.27
2019-03-10T02:08:16.520Z,2.27
2019-03-10T02:09:20.048Z,1.57
2019-03-10T02:10:23.511Z,2.33
2019-03-10T02:11:27.435Z,2.00
2019-03-10T02:12:30.890Z,2.07
2019-03-10T02:13:34.363Z,1.90
2019-03-10T02:14:37.822Z,1.90
2019-03-10T02:15:41.283Z,2.20
2019-03-10T02:16:44.812Z,1.77
2019-03-10T02:17:48.336Z,1.97
2019-03-10T02:18:51.818Z,2.00
2019-03-10T02:19:55.235Z,2.00
2019-03-10T02:20:58.739Z,1.70
2019-03-10T02:22:02.190Z,2.20
2019-03-10T02:23:05.647Z,1.70
2019-03-10T02:24:09.123Z,1.97
2019-03-10T02:25:12.655Z,1.83
2019-03-10T02:26:16.107Z,1.73
2019-03-10T02:27:19.629Z,2.20
2019-03-10T02:28:23.088Z,1.80
2019-03-10T02:29:26.562Z,1.90
2019-03-10T02:30:30.024Z,1.83
2019-03-10T02:31:33.480Z,2.47
2019-03-10T02:32:37.000Z,2.00
2019-03-10T02:33:40.467Z,2.10
2019-03-10T02:34:43.928Z,1.83
2019-03-10T02:35:47.459Z,2.10
2019-03-10T02:36:50.929Z,1.70
2019-03-10T02:37:54.368Z,1.50
2019-03-10T02:38:57.841Z,2.27
2019-03-10T02:40:01.324Z,1.80
2019-03-10T02:41:04.770Z,2.27
2019-03-10T02:42:08.237Z,1.97
2019-03-10T02:43:11.673Z,2.07
2019-03-10T02:44:15.118Z,1.80
2019-03-10T02:45:18.620Z,2.00
2019-03-10T02:46:22.060Z,1.87
2019-03-10T02:47:25.529Z,1.90
2019-03-10T02:48:29.041Z,1.70
2019-03-10T02:49:32.482Z,1.70
2019-03-10T02:50:35.976Z,1.67
2019-03-10T02:51:39.418Z,1.80
2019-03-10T02:52:42.859Z,1.70
2019-03-10T02:53:46.332Z,2.00
2019-03-10T02:54:49.783Z,1.90
2019-03-10T02:55:53.268Z,1.77
2019-03-10T02:56:56.744Z,2.10
2019-03-10T02:58:00.187Z,2.00
2019-03-10T02:59:03.684Z,1.83
2019-03-10T03:00:10.307Z,2.20
2019-03-10T03:01:13.773Z,2.10
2019-03-10T03:02:17.236Z,1.67
2019-03-10T03:03:20.679Z,1.63
2019-03-10T03:04:24.152Z,1.83
2019-03-10T03:05:27.620Z,2.00
2019-03-10T03:06:31.083Z,1.60
2019-03-10T03:07:34.553Z,1.67
2019-03-10T03:08:37.999Z,1.60
2019-03-10T03:09:41.440Z,1.70
2019-03-10T03:10:44.918Z,1.80
2019-03-10T03:11:48.379Z,1.73
2019-03-10T03:12:51.848Z,1.93
2019-03-10T03:13:55.407Z,1.83
2019-03-10T03:14:58.830Z,1.70
2019-03-10T03:16:02.300Z,1.87
2019-03-10T03:17:05.759Z,1.57
2019-03-10T03:18:09.212Z,1.80
2019-03-10T03:19:12.666Z,1.50
2019-03-10T03:20:16.111Z,1.77
2019-03-10T03:21:19.650Z,1.50
2019-03-10T03:22:23.137Z,1.60
2019-03-10T03:23:26.575Z,1.40
2019-03-10T03:24:30.057Z,1.37
2019-03-10T03:25:33.494Z,2.23
2019-03-10T03:26:36.946Z,1.87
2019-03-10T03:27:40.426Z,1.70
2019-03-10T03:28:43.905Z,1.63
2019-03-10T03:29:47.409Z,1.60
2019-03-10T03:30:50.876Z,1.93
2019-03-10T03:31:54.323Z,1.83
2019-03-10T03:32:57.809Z,1.80
2019-03-10T03:34:01.264Z,1.40
2019-03-10T03:35:13.315Z,1.80
2019-03-10T03:36:28.725Z,1.63
2019-03-10T03:37:32.184Z,1.50
2019-03-10T03:38:38.543Z,1.90
2019-03-10T03:39:42.083Z,2.10
2019-03-10T03:40:48.569Z,1.60
2019-03-10T03:41:52.016Z,1.60
2019-03-10T03:42:55.592Z,1.93
2019-03-10T03:43:59.060Z,1.73
2019-03-10T03:45:02.510Z,1.80
2019-03-10T03:46:06.075Z,1.80
2019-03-10T03:47:09.497Z,1.60
2019-03-10T03:48:12.977Z,1.83
2019-03-10T03:49:16.436Z,1.70
2019-03-10T03:50:19.885Z,1.50
2019-03-10T03:51:23.362Z,2.03
2019-03-10T03:52:26.827Z,1.73
2019-03-10T03:53:30.282Z,1.60
2019-03-10T03:54:33.754Z,1.83
2019-03-10T03:55:37.193Z,1.80
2019-03-10T03:56:40.647Z,1.83
2019-03-10T03:57:44.115Z,1.50
2019-03-10T03:58:47.583Z,1.73
2019-03-10T03:59:51.067Z,1.60
2019-03-10T04:00:56.150Z,1.70
2019-03-10T04:02:01.229Z,1.70
2019-03-10T04:03:04.707Z,1.97
2019-03-10T04:04:08.246Z,1.50
2019-03-10T04:05:11.826Z,1.77
2019-03-10T04:06:15.292Z,1.40
2019-03-10T04:07:18.732Z,1.50
2019-03-10T04:08:22.198Z,1.67
2019-03-10T04:09:25.686Z,1.67
2019-03-10T04:10:29.201Z,1.93
2019-03-10T04:11:32.663Z,1.50
2019-03-10T04:12:36.099Z,1.87
2019-03-10T04:13:39.541Z,1.70
2019-03-10T04:14:43.031Z,1.50
2019-03-10T04:15:46.532Z,1.87
2019-03-10T04:16:49.995Z,1.67
2019-03-10T04:17:53.462Z,1.20
2019-03-10T04:18:56.898Z,1.53
2019-03-10T04:20:00.479Z,1.63
2019-03-10T04:21:03.991Z,1.60
2019-03-10T04:22:07.403Z,1.50
2019-03-10T04:23:10.874Z,1.40
2019-03-10T04:24:14.381Z,1.60
2019-03-10T04:25:17.865Z,1.87
2019-03-10T04:26:21.329Z,1.47
2019-03-10T04:27:24.770Z,1.40
2019-03-10T04:28:28.241Z,1.80
2019-03-10T04:29:31.677Z,1.50
2019-03-10T04:30:35.215Z,1.70
2019-03-10T04:31:38.688Z,1.50
2019-03-10T04:32:42.124Z,1.47
2019-03-10T04:33:45.598Z,1.37
2019-03-10T04:34:49.126Z,1.60
2019-03-10T04:35:52.585Z,1.30
2019-03-10T04:36:56.100Z,1.40
2019-03-10T04:37:59.565Z,1.33
2019-03-10T04:39:04.577Z,1.40
2019-03-10T04:40:08.046Z,1.20
2019-03-10T04:41:11.504Z,1.30
2019-03-10T04:42:14.972Z,1.73
2019-03-10T04:43:18.441Z,1.60
2019-03-10T04:44:21.876Z,1.50
2019-03-10T04:45:25.346Z,1.60
2019-03-10T04:46:28.800Z,1.50
2019-03-10T04:47:32.240Z,1.60
2019-03-10T04:48:35.776Z,2.07
2019-03-10T04:49:39.227Z,2.00
2019-03-10T04:50:42.676Z,1.63
2019-03-10T04:51:46.149Z,1.30
2019-03-10T04:52:49.609Z,1.73
2019-03-10T04:53:53.065Z,1.60
2019-03-10T04:55:14.201Z,1.23
2019-03-10T04:56:25.253Z,1.60
2019-03-10T04:57:28.726Z,1.50
2019-03-10T04:58:33.813Z,1.67
2019-03-10T04:59:37.264Z,1.70
2019-03-10T05:00:42.554Z,1.43
2019-03-10T05:01:46.001Z,1.30
2019-03-10T05:02:49.478Z,1.40
2019-03-10T05:03:52.930Z,1.47
2019-03-10T05:04:56.554Z,1.50
2019-03-10T05:06:00.008Z,1.37
2019-03-10T05:07:03.457Z,1.53
2019-03-10T05:08:06.937Z,1.70
2019-03-10T05:09:10.693Z,1.30
2019-03-10T05:10:14.212Z,1.67
2019-03-10T05:11:17.677Z,1.53
2019-03-10T05:12:21.128Z,1.50
2019-03-10T05:13:24.606Z,1.30
2019-03-10T05:14:28.129Z,1.47
2019-03-10T05:15:31.598Z,1.37
2019-03-10T05:16:35.054Z,1.37
2019-03-10T05:17:38.497Z,1.70
2019-03-10T05:18:41.986Z,1.73
2019-03-10T05:19:45.467Z,1.43
2019-03-10T05:20:49.356Z,1.47
2019-03-10T05:21:52.801Z,1.60
2019-03-10T05:23:21.733Z,1.20
2019-03-10T05:24:25.187Z,1.20
2019-03-10T05:25:28.641Z,1.40
2019-03-10T05:26:32.095Z,1.27
2019-03-10T05:27:35.547Z,1.10
2019-03-10T05:28:42.144Z,1.50
2019-03-10T05:29:45.620Z,1.40
2019-03-10T05:30:49.071Z,1.17
2019-03-10T05:31:52.528Z,1.17
2019-03-10T05:32:55.980Z,1.00
2019-03-10T05:33:59.438Z,1.60
2019-03-10T05:35:02.912Z,1.00
2019-03-10T05:36:06.453Z,1.73
2019-03-10T05:37:09.973Z,1.20
2019-03-10T05:38:13.430Z,1.50
2019-03-10T05:39:16.897Z,1.20
2019-03-10T05:40:20.372Z,0.90
2019-03-10T05:41:23.820Z,1.40
2019-03-10T05:42:27.277Z,1.30
2019-03-10T05:43:30.800Z,1.20
2019-03-10T05:44:34.261Z,1.80
2019-03-10T05:45:37.734Z,1.13
2019-03-10T05:46:41.182Z,1.30
2019-03-10T05:47:44.638Z,1.40
2019-03-10T05:48:48.161Z,1.60
2019-03-10T05:49:51.683Z,1.20
2019-03-10T05:50:55.160Z,1.17
2019-03-10T05:51:58.611Z,1.20
2019-03-10T05:53:02.065Z,1.40
2019-03-10T05:54:05.527Z,1.00
2019-03-10T05:55:09.043Z,1.20
2019-03-10T05:56:12.582Z,1.17
2019-03-10T05:57:16.034Z,1.50
2019-03-10T05:58:19.511Z,1.40
2019-03-10T05:59:22.934Z,1.00
2019-03-10T06:00:26.373Z,1.53
2019-03-10T06:01:29.884Z,1.30
2019-03-10T06:02:33.323Z,1.23
2019-03-10T06:03:36.786Z,1.10
2019-03-10T06:04:40.251Z,1.17
2019-03-10T06:05:43.691Z,1.27
2019-03-10T06:06:47.177Z,0.90
2019-03-10T06:07:50.611Z,1.30
2019-03-10T06:08:54.050Z,0.97
2019-03-10T06:09:57.517Z,1.50
2019-03-10T06:11:00.960Z,1.37
2019-03-10T06:12:04.518Z,1.00
2019-03-10T06:13:07.986Z,1.20
2019-03-10T06:14:11.423Z,1.33
2019-03-10T06:15:14.893Z,1.63
2019-03-10T06:16:18.398Z,1.00
2019-03-10T06:17:21.863Z,1.03
2019-03-10T06:18:25.373Z,1.30
2019-03-10T06:19:28.816Z,1.57
2019-03-10T06:20:32.285Z,1.30
2019-03-10T06:21:35.755Z,1.00
2019-03-10T06:22:39.227Z,1.20
2019-03-10T06:23:42.693Z,1.63
2019-03-10T06:24:46.134Z,0.90
2019-03-10T06:25:49.577Z,0.93
2019-03-10T06:26:53.040Z,1.33
2019-03-10T06:27:56.507Z,1.30
2019-03-10T06:29:00.038Z,1.60
2019-03-10T06:30:03.868Z,1.10
2019-03-10T06:31:07.302Z,1.40
2019-03-10T06:32:10.770Z,1.43
2019-03-10T06:33:14.231Z,1.10
2019-03-10T06:34:17.673Z,1.13
2019-03-10T06:35:21.142Z,1.10
2019-03-10T06:36:24.577Z,0.80
2019-03-10T06:37:28.047Z,1.57
2019-03-10T06:38:31.535Z,1.23
2019-03-10T06:39:34.972Z,1.10
2019-03-10T06:40:38.443Z,1.30
2019-03-10T06:41:41.879Z,1.10
2019-03-10T06:42:45.312Z,0.90
2019-03-10T06:43:48.801Z,1.00
2019-03-10T06:44:52.269Z,1.27
2019-03-10T06:45:55.738Z,1.10
2019-03-10T06:46:59.204Z,1.10
2019-03-10T06:48:02.642Z,1.30
2019-03-10T06:49:06.122Z,1.00
2019-03-10T06:50:12.410Z,1.30
2019-03-10T06:51:16.023Z,0.90
2019-03-10T06:52:19.555Z,1.00
2019-03-10T06:53:23.006Z,0.83
2019-03-10T06:54:26.497Z,0.97
2019-03-10T06:55:29.986Z,0.93
2019-03-10T06:56:33.464Z,1.17
2019-03-10T06:57:36.932Z,0.97
2019-03-10T06:58:40.368Z,1.10
2019-03-10T06:59:43.825Z,1.23
2019-03-10T07:00:47.324Z,1.17
2019-03-10T07:01:50.771Z,1.10
2019-03-10T07:02:54.234Z,1.00
2019-03-10T07:03:57.707Z,1.27
2019-03-10T07:05:01.165Z,1.17
2019-03-10T07:06:04.691Z,1.10
2019-03-10T07:07:08.154Z,0.90
2019-03-10T07:08:11.670Z,0.90
2019-03-10T07:09:15.134Z,1.50
2019-03-10T07:10:18.611Z,0.80
2019-03-10T07:11:22.078Z,1.10
2019-03-10T07:12:25.534Z,1.30
2019-03-10T07:13:28.986Z,1.20
2019-03-10T07:14:32.444Z,1.43
2019-03-10T07:15:35.908Z,1.13
2019-03-10T07:16:39.360Z,1.10
2019-03-10T07:17:42.881Z,1.10
2019-03-10T07:18:46.330Z,1.10
2019-03-10T07:19:49.801Z,0.90
2019-03-10T07:20:53.281Z,0.93
2019-03-10T07:21:56.730Z,1.03
2019-03-10T07:23:00.188Z,0.97
2019-03-10T07:24:03.645Z,0.87
2019-03-10T07:25:07.938Z,1.10
2019-03-10T07:26:11.571Z,1.07
2019-03-10T07:27:15.043Z,1.27
2019-03-10T07:28:28.950Z,1.07
2019-03-10T07:29:43.161Z,1.20
2019-03-10T07:30:53.956Z,0.93
2019-03-10T07:32:09.018Z,1.10
2019-03-10T07:33:19.884Z,1.03
2019-03-10T07:34:40.725Z,1.10
2019-03-10T07:36:02.024Z,1.10
2019-03-10T07:37:13.235Z,0.83
2019-03-10T07:38:29.287Z,0.93
2019-03-10T07:39:40.118Z,1.50
2019-03-10T07:41:01.196Z,1.00
2019-03-10T07:42:22.852Z,0.97
2019-03-10T07:43:30.934Z,0.93
2019-03-10T07:44:36.015Z,1.00
2019-03-10T07:45:44.218Z,1.13
2019-03-10T07:47:05.441Z,1.17
2019-03-10T07:48:10.574Z,0.97
2019-03-10T07:49:17.969Z,1.10
2019-03-10T07:50:22.514Z,0.90
2019-03-10T07:51:33.038Z,1.10
2019-03-10T07:52:44.174Z,1.10
2019-03-10T07:53:58.370Z,1.20
2019-03-10T07:55:09.215Z,1.60
2019-03-10T07:56:20.151Z,1.17
2019-03-10T07:57:34.253Z,1.67
2019-03-10T07:58:42.343Z,1.47
2019-03-10T07:59:53.258Z,1.40
2019-03-10T08:01:04.122Z,1.20
2019-03-10T08:02:18.532Z,1.60
2019-03-10T08:03:23.632Z,1.50
2019-03-10T08:04:43.331Z,1.70
2019-03-10T08:05:50.976Z,1.50
2019-03-10T08:07:12.271Z,1.50
2019-03-10T08:08:17.418Z,1.60
2019-03-10T08:09:28.275Z,1.37
2019-03-10T08:10:39.172Z,1.30
2019-03-10T08:11:50.014Z,1.50
2019-03-10T08:13:12.656Z,1.33
2019-03-10T08:14:20.495Z,1.87
2019-03-10T08:15:41.507Z,1.53
2019-03-10T08:16:46.614Z,1.53
2019-03-10T08:17:51.735Z,1.70
2019-03-10T08:18:56.793Z,1.73
2019-03-10T08:20:14.009Z,1.40
2019-03-10T08:21:24.854Z,1.87
2019-03-10T08:22:48.015Z,2.03
2019-03-10T08:23:55.857Z,1.70
2019-03-10T08:25:01.160Z,1.83
2019-03-10T08:26:14.800Z,1.90
2019-03-10T08:27:34.514Z,2.20
2019-03-10T08:28:54.489Z,3.60
2019-03-10T08:30:15.522Z,6.87
2019-03-10T08:31:23.552Z,7.10
2019-03-10T08:32:34.315Z,7.53
2019-03-10T08:33:39.433Z,7.03
2019-03-10T08:34:54.258Z,5.87
2019-03-10T08:35:59.347Z,6.50
2019-03-10T08:37:13.034Z,5.93
2019-03-10T08:38:26.718Z,4.80
2019-03-10T08:39:31.877Z,4.50
2019-03-10T08:40:37.014Z,4.30
2019-03-10T08:41:42.196Z,4.50
2019-03-10T08:42:50.006Z,3.70
2019-03-10T08:44:03.669Z,4.00
2019-03-10T08:45:10.139Z,3.63
2019-03-10T08:46:18.144Z,3.33
2019-03-10T08:47:32.041Z,3.20
2019-03-10T08:48:45.774Z,3.60
2019-03-10T08:49:51.197Z,3.47
2019-03-10T08:50:56.286Z,2.90
2019-03-10T08:52:06.825Z,2.47
2019-03-10T08:53:17.465Z,2.70
2019-03-10T08:54:31.192Z,2.50
2019-03-10T08:55:36.570Z,1.93
2019-03-10T08:56:59.211Z,3.07
2019-03-10T08:58:04.555Z,3.00
2019-03-10T08:59:12.115Z,2.70
2019-03-10T09:00:20.349Z,3.00
2019-03-10T09:01:31.125Z,2.63
2019-03-10T09:02:42.341Z,2.77
2019-03-10T09:03:59.627Z,2.47
2019-03-10T09:05:13.523Z,2.20
2019-03-10T09:06:33.400Z,2.50
2019-03-10T09:07:38.563Z,2.77
2019-03-10T09:08:49.344Z,2.67
2019-03-10T09:10:06.137Z,2.50
2019-03-10T09:11:17.145Z,2.20
2019-03-10T09:12:22.405Z,1.77
2019-03-10T09:13:39.327Z,1.97
2019-03-10T09:14:50.144Z,2.03
2019-03-10T09:15:55.402Z,2.23
2019-03-10T09:17:16.715Z,2.87
2019-03-10T09:18:38.702Z,2.27
2019-03-10T09:19:49.915Z,1.93
2019-03-10T09:20:57.611Z,2.00
2019-03-10T09:22:20.632Z,2.33
2019-03-10T09:23:37.712Z,2.83
2019-03-10T09:25:00.569Z,1.60
2019-03-10T09:26:05.831Z,1.97
2019-03-10T09:27:19.670Z,2.17
2019-03-10T09:28:33.678Z,2.27
2019-03-10T09:29:44.852Z,1.67
2019-03-10T09:31:01.524Z,2.50
2019-03-10T09:32:06.632Z,1.80
2019-03-10T09:33:14.413Z,1.50
2019-03-10T09:34:25.325Z,1.67
2019-03-10T09:35:30.521Z,1.70
2019-03-10T09:36:51.833Z,1.70
2019-03-10T09:37:59.651Z,2.13
2019-03-10T09:39:10.342Z,2.23
2019-03-10T09:40:33.470Z,2.33
2019-03-10T09:41:44.437Z,1.70
2019-03-10T09:42:49.527Z,2.00
2019-03-10T09:44:10.913Z,1.70
2019-03-10T09:45:21.617Z,1.30
2019-03-10T09:46:29.375Z,1.20
2019-03-10T09:47:50.725Z,1.80
2019-03-10T09:49:11.980Z,1.90
2019-03-10T09:50:31.862Z,1.40
2019-03-10T09:51:52.807Z,1.73
2019-03-10T09:52:58.098Z,1.00
2019-03-10T09:54:19.132Z,1.17
2019-03-10T09:55:26.953Z,1.50
2019-03-10T09:56:32.041Z,1.50
2019-03-10T09:57:48.598Z,1.00
2019-03-10T09:58:53.686Z,1.17
2019-03-10T10:00:07.524Z,1.20
2019-03-10T10:02:35.269Z,1.10
2019-03-10T10:03:55.269Z,1.07
2019-03-10T10:05:03.088Z,1.10
2019-03-10T10:06:14.497Z,1.20
2019-03-10T10:07:22.350Z,1.20
2019-03-10T10:08:27.597Z,1.10
2019-03-10T10:09:35.376Z,1.10
2019-03-10T10:10:46.556Z,1.20
2019-03-10T10:11:57.358Z,1.13
2019-03-10T10:13:18.210Z,0.83
2019-03-10T10:14:23.422Z,0.87
2019-03-10T10:15:40.554Z,1.00
2019-03-10T10:16:45.974Z,1.40
2019-03-10T10:17:57.268Z,1.10
2019-03-10T10:19:02.477Z,1.30
2019-03-10T10:20:08.321Z,1.33
2019-03-10T10:21:16.366Z,1.17
2019-03-10T10:22:27.597Z,1.27
2019-03-10T10:23:35.751Z,1.10
2019-03-10T10:24:46.359Z,1.40
2019-03-10T10:26:03.708Z,1.60
2019-03-10T10:27:08.889Z,1.33
2019-03-10T10:28:16.570Z,1.50
2019-03-10T10:29:21.672Z,1.57
2019-03-10T10:30:44.792Z,1.20
2019-03-10T10:31:52.338Z,1.20
2019-03-10T10:32:57.523Z,1.47
2019-03-10T10:34:20.899Z,2.20
2019-03-10T10:35:28.427Z,1.20
2019-03-10T10:36:36.209Z,1.10
2019-03-10T10:37:44.016Z,1.77
2019-03-10T10:39:07.166Z,1.40
2019-03-10T10:40:15.180Z,1.40
2019-03-10T10:41:32.387Z,1.57
2019-03-10T10:42:53.481Z,1.10
2019-03-10T10:44:10.173Z,1.40
2019-03-10T10:45:30.349Z,1.40
2019-03-10T10:46:53.124Z,2.00
2019-03-10T10:48:00.726Z,1.60
2019-03-10T10:49:06.055Z,2.00
2019-03-10T10:50:13.802Z,1.63
2019-03-10T10:51:19.409Z,1.90
2019-03-10T10:52:24.843Z,2.10
2019-03-10T10:53:32.982Z,1.60
2019-03-10T10:54:53.371Z,1.43
2019-03-10T10:56:07.516Z,1.60
2019-03-10T10:57:12.761Z,1.70
2019-03-10T10:58:36.053Z,2.60
2019-03-10T10:59:52.835Z,1.90
2019-03-10T11:01:00.793Z,1.60
2019-03-10T11:02:06.118Z,2.30
2019-03-10T11:03:29.335Z,1.80
2019-03-10T11:04:49.508Z,1.80
2019-03-10T11:05:54.712Z,1.60
2019-03-10T11:07:12.281Z,1.73
2019-03-10T11:08:17.537Z,1.93
2019-03-10T11:09:25.592Z,1.80
2019-03-10T11:10:30.797Z,2.00
2019-03-10T11:11:47.896Z,2.13
2019-03-10T11:12:53.133Z,2.00
2019-03-10T11:14:07.306Z,1.60
2019-03-10T11:15:12.617Z,1.97
2019-03-10T11:16:17.802Z,2.30
2019-03-10T11:17:25.732Z,1.90
2019-03-10T11:18:42.904Z,2.27
2019-03-10T11:19:50.827Z,1.73
2019-03-10T11:20:58.798Z,1.60
2019-03-10T11:22:04.010Z,2.00
2019-03-10T11:23:15.012Z,1.90
2019-03-10T11:24:22.864Z,2.10
2019-03-10T11:25:39.567Z,2.30
2019-03-10T11:26:50.138Z,1.90
2019-03-10T11:27:55.359Z,2.20
2019-03-10T11:29:08.963Z,2.10
2019-03-10T11:30:32.950Z,1.83
2019-03-10T11:31:46.567Z,2.10
2019-03-10T11:32:57.472Z,1.77
2019-03-10T11:34:08.416Z,1.73
2019-03-10T11:35:16.347Z,1.77
2019-03-10T11:36:27.209Z,2.23
2019-03-10T11:37:32.412Z,2.07
2019-03-10T11:38:37.637Z,2.00
2019-03-10T11:39:45.570Z,2.60
2019-03-10T11:40:53.526Z,2.00
2019-03-10T11:41:58.667Z,2.10
2019-03-10T11:43:06.867Z,1.93
2019-03-10T11:44:23.674Z,2.37
2019-03-10T11:45:40.752Z,1.80
2019-03-10T11:46:57.979Z,2.00
2019-03-10T11:48:03.255Z,2.13
2019-03-10T11:49:14.516Z,2.47
2019-03-10T11:50:19.709Z,2.40
2019-03-10T11:51:27.887Z,2.20
2019-03-10T11:52:33.483Z,2.67
2019-03-10T11:53:38.696Z,2.10
2019-03-10T11:54:52.748Z,2.20
2019-03-10T11:56:13.922Z,2.90
2019-03-10T11:57:27.887Z,2.40
2019-03-10T11:58:35.798Z,2.80
2019-03-10T11:59:46.530Z,2.60
2019-03-10T12:00:54.263Z,2.30
2019-03-10T12:02:15.450Z,1.90
2019-03-10T12:03:28.035Z,2.03
2019-03-10T12:04:42.317Z,2.63
2019-03-10T12:05:47.592Z,2.37
2019-03-10T12:06:52.785Z,2.30
2019-03-10T12:08:00.631Z,2.57
2019-03-10T12:09:19.324Z,2.50
2019-03-10T12:10:22.981Z,2.63
2019-03-10T12:11:26.602Z,2.13
2019-03-10T12:12:30.359Z,2.60
2019-03-10T12:13:33.843Z,2.70
2019-03-10T12:14:37.436Z,2.67
2019-03-10T12:15:41.091Z,2.40
2019-03-10T12:16:44.720Z,2.57
2019-03-10T12:17:48.201Z,2.13
2019-03-10T12:18:51.914Z,2.43
2019-03-10T12:19:55.505Z,2.40
2019-03-10T12:20:59.245Z,2.17
2019-03-10T12:22:03.002Z,1.90
2019-03-10T12:23:06.615Z,2.00
2019-03-10T12:24:10.241Z,3.43
2019-03-10T12:25:14.316Z,1.93
2019-03-10T12:26:17.876Z,2.30
2019-03-10T12:27:21.354Z,2.27
2019-03-10T12:28:24.847Z,2.80
2019-03-10T12:29:28.350Z,2.60
2019-03-10T12:30:32.190Z,2.13
2019-03-10T12:31:35.785Z,2.43
2019-03-10T12:32:39.329Z,1.93
2019-03-10T12:33:42.881Z,2.90
2019-03-10T12:34:46.376Z,3.80
2019-03-10T12:35:49.897Z,2.27
2019-03-10T12:36:53.387Z,2.40
2019-03-10T12:37:56.938Z,2.50
2019-03-10T12:39:00.518Z,2.17
2019-03-10T12:40:05.303Z,2.50
2019-03-10T12:41:08.902Z,2.30
2019-03-10T12:42:12.476Z,2.63
2019-03-10T12:43:16.030Z,1.93
2019-03-10T12:44:19.659Z,2.00
2019-03-10T12:45:23.233Z,2.10
2019-03-10T12:46:27.051Z,2.83
2019-03-10T12:47:30.755Z,4.20
2019-03-10T12:48:34.750Z,5.17
2019-03-10T12:49:38.362Z,5.63
2019-03-10T12:50:41.998Z,4.30
2019-03-10T12:51:45.580Z,4.60
2019-03-10T12:52:49.144Z,4.23
2019-03-10T12:53:52.693Z,4.50
2019-03-10T12:54:56.345Z,4.00
2019-03-10T12:55:59.841Z,4.47
2019-03-10T12:57:03.354Z,3.83
2019-03-10T12:58:06.977Z,4.30
2019-03-10T12:59:10.482Z,4.67
2019-03-10T13:00:15.738Z,4.03
2019-03-10T13:01:19.418Z,4.03
2019-03-10T13:02:23.120Z,4.20
2019-03-10T13:03:26.690Z,3.70
2019-03-10T13:04:30.405Z,3.47
2019-03-10T13:05:34.041Z,4.40
2019-03-10T13:06:38.108Z,3.70
2019-03-10T13:07:42.043Z,3.40
2019-03-10T13:08:45.541Z,3.80
2019-03-10T13:09:49.256Z,3.70
2019-03-10T13:10:52.873Z,3.87
2019-03-10T13:11:56.407Z,4.10
2019-03-10T13:13:00.039Z,4.07
2019-03-10T13:14:03.521Z,3.70
2019-03-10T13:15:12.338Z,3.70
2019-03-10T13:16:16.064Z,4.30
2019-03-10T13:17:19.539Z,3.83
2019-03-10T13:18:23.175Z,3.70
2019-03-10T13:19:26.811Z,3.70
2019-03-10T13:20:30.456Z,3.10
2019-03-10T13:21:34.369Z,4.10
2019-03-10T13:22:38.081Z,3.37
2019-03-10T13:23:41.672Z,4.00
2019-03-10T13:24:45.229Z,4.03
2019-03-10T13:25:48.784Z,3.60
2019-03-10T13:26:52.470Z,3.10
2019-03-10T13:27:56.385Z,3.90
2019-03-10T13:28:59.934Z,3.73
2019-03-10T13:30:04.793Z,3.40
2019-03-10T13:31:08.488Z,4.07
2019-03-10T13:32:12.036Z,3.10
2019-03-10T13:33:15.727Z,3.60
2019-03-10T13:34:19.288Z,3.83
2019-03-10T13:35:22.844Z,3.13
2019-03-10T13:36:26.488Z,4.57
2019-03-10T13:37:29.990Z,3.87
2019-03-10T13:38:33.520Z,3.60
2019-03-10T13:39:37.130Z,3.30
2019-03-10T13:40:40.757Z,3.20
2019-03-10T13:41:44.443Z,3.33
2019-03-10T13:42:48.049Z,3.50
2019-03-10T13:43:51.576Z,4.13
2019-03-10T13:44:55.661Z,3.50
2019-03-10T13:45:59.681Z,3.27
2019-03-10T13:47:03.625Z,2.73
2019-03-10T13:48:07.377Z,3.53
2019-03-10T13:49:11.096Z,3.53
2019-03-10T13:50:16.184Z,3.23
2019-03-10T13:51:19.872Z,3.40
2019-03-10T13:52:23.448Z,3.73
2019-03-10T13:53:27.023Z,3.20
2019-03-10T13:54:30.528Z,3.40
2019-03-10T13:55:34.061Z,3.80
2019-03-10T13:56:37.534Z,3.73
2019-03-10T13:57:41.008Z,3.17
2019-03-10T13:58:44.572Z,3.10
2019-03-10T13:59:48.067Z,3.60
2019-03-10T14:00:52.997Z,3.03
2019-03-10T14:01:56.590Z,3.23
2019-03-10T14:03:00.138Z,3.57
2019-03-10T14:04:03.769Z,3.33
2019-03-10T14:05:08.503Z,3.10
2019-03-10T14:06:12.049Z,2.73
2019-03-10T14:07:15.624Z,3.20
2019-03-10T14:08:19.376Z,3.40
2019-03-10T14:09:22.969Z,3.03
2019-03-10T14:10:26.651Z,3.60
2019-03-10T14:11:30.412Z,3.23
2019-03-10T14:12:34.203Z,3.53
2019-03-10T14:13:37.952Z,3.23
2019-03-10T14:14:41.652Z,3.23
2019-03-10T14:15:45.390Z,3.40
2019-03-10T14:16:48.933Z,3.57
2019-03-10T14:17:52.516Z,3.37
2019-03-10T14:18:56.047Z,2.90
2019-03-10T14:19:59.565Z,3.87
2019-03-10T14:21:03.103Z,3.53
2019-03-10T14:22:06.573Z,2.80
2019-03-10T14:23:10.361Z,3.13
2019-03-10T14:24:14.042Z,3.53
2019-03-10T14:25:17.665Z,3.17
2019-03-10T14:26:21.359Z,3.27
2019-03-10T14:27:24.932Z,3.67
2019-03-10T14:28:28.486Z,3.10
2019-03-10T14:29:32.081Z,3.20
2019-03-10T14:30:35.704Z,3.20
2019-03-10T14:31:39.274Z,3.20
2019-03-10T14:32:42.828Z,2.70
2019-03-10T14:33:46.325Z,3.47
2019-03-10T14:34:49.979Z,2.60
2019-03-10T14:35:53.544Z,2.83
2019-03-10T14:36:57.086Z,2.83
2019-03-10T14:38:00.733Z,3.23
2019-03-10T14:39:05.796Z,3.23
2019-03-10T14:40:12.520Z,3.20
2019-03-10T14:41:16.096Z,3.23
2019-03-10T14:42:19.653Z,2.90
2019-03-10T14:43:23.201Z,3.00
2019-03-10T14:44:26.783Z,3.13
2019-03-10T14:45:30.402Z,3.17